PWSweather.com
Personal Weather Stations
Station Observations
MODESTO21
East Modesto Ca, Modesto, CA 95355

East Modesto CaModesto, CA 95355

Lat: 37.658055, Lon: -120.94719199999997

Elevation: 88

Station Type: AcuRite 01036CADI

Latest ConditionsUpdated 4:39:44 AM PDT Thursday, Apr 26, 2018
Currently Today's Max Today's Min Today's Average
Temperature 53.1°F11.7°C 58.6°F14.8°C 53.1°F11.7°C 55.1°F12.8°C
Dew Point 48.4°F9.1°C 51.4°F10.8°C 48.4°F9.1°C 49.5°F9.7°C
Winds 3.2 mph N5.1 kmh N 10.9 mph NNE17.5 kmh NNE - 4.6 mph 7.4 kmh
Wind Gusts 7.3 mph11.7 kmh 10.9 mph17.5 kmh - -
Humidity 84% 84% 76% 81%
Pressure 29.99 in1015.6 mb 30.00 in1015.9 mb 29.98 in1015.2 mb -
Hour Temp Dew Point Humidity Winds Wind Gusts Pressure Precip Precip Rate Daily Precip Total
04:39 AM 53.1°F11.7°C 48.4°F9.1°C 84% 5.3 mph NE8.5 kmh NE 7.3 mph11.7 kmh 29.99 in1015.6 mb 0.00 in0.0 mm 0.00 in0.0 mm 0.00 in0.0 mm
04:38 AM 53.1°F11.7°C 48.4°F9.1°C 84% 4.7 mph WNW7.6 kmh WNW 7.3 mph11.7 kmh 30.00 in1015.9 mb 0.00 in0.0 mm 0.00 in0.0 mm 0.00 in0.0 mm
04:37 AM 53.1°F11.7°C 48.4°F9.1°C 84% 6.3 mph NNW10.1 kmh NNW 7.3 mph11.7 kmh 30.00 in1015.9 mb 0.00 in0.0 mm 0.00 in0.0 mm 0.00 in0.0 mm
04:36 AM 53.1°F11.7°C 48.4°F9.1°C 84% 5.8 mph N9.3 kmh N 7.3 mph11.7 kmh 30.00 in1015.9 mb 0.00 in0.0 mm 0.00 in0.0 mm 0.00 in0.0 mm
04:35 AM 53.1°F11.7°C 48.4°F9.1°C 84% 4.2 mph NNW6.8 kmh NNW 7.3 mph11.7 kmh 30.00 in1015.9 mb 0.00 in0.0 mm 0.00 in0.0 mm 0.00 in0.0 mm
04:34 AM 53.1°F11.7°C 48.4°F9.1°C 84% 4.2 mph NNW6.8 kmh NNW 7.3 mph11.7 kmh 30.00 in1015.9 mb 0.00 in0.0 mm 0.00 in0.0 mm 0.00 in0.0 mm
04:33 AM 53.1°F11.7°C 48.4°F9.1°C 84% 4.7 mph NW7.6 kmh NW 7.3 mph11.7 kmh 30.00 in1015.9 mb 0.00 in0.0 mm 0.00 in0.0 mm 0.00 in0.0 mm
04:32 AM 53.1°F11.7°C 48.4°F9.1°C 84% 3.7 mph NE6.0 kmh NE 7.3 mph11.7 kmh 30.00 in1015.9 mb 0.00 in0.0 mm 0.00 in0.0 mm 0.00 in0.0 mm
04:31 AM 53.2°F11.8°C 48.5°F9.2°C 84% 2.7 mph N4.3 kmh N 7.3 mph11.7 kmh 30.00 in1015.9 mb 0.00 in0.0 mm 0.00 in0.0 mm 0.00 in0.0 mm
04:30 AM 53.2°F11.8°C 48.5°F9.2°C 84% 6.3 mph ENE10.1 kmh ENE 6.8 mph10.9 kmh 30.00 in1015.9 mb 0.00 in0.0 mm 0.00 in0.0 mm 0.00 in0.0 mm
04:29 AM 53.2°F11.8°C 48.5°F9.2°C 84% 4.2 mph NW6.8 kmh NW 6.8 mph10.9 kmh 30.00 in1015.9 mb 0.00 in0.0 mm 0.00 in0.0 mm 0.00 in0.0 mm
04:28 AM 53.2°F11.8°C 48.5°F9.2°C 84% 5.8 mph NNE9.3 kmh NNE 7.3 mph11.7 kmh 30.00 in1015.9 mb 0.00 in0.0 mm 0.00 in0.0 mm 0.00 in0.0 mm
04:27 AM 53.2°F11.8°C 48.5°F9.2°C 84% 4.2 mph NW6.8 kmh NW 7.3 mph11.7 kmh 30.00 in1015.9 mb 0.00 in0.0 mm 0.00 in0.0 mm 0.00 in0.0 mm
04:26 AM 53.2°F11.8°C 48.5°F9.2°C 84% 4.2 mph NW6.8 kmh NW 7.3 mph11.7 kmh 29.99 in1015.6 mb 0.00 in0.0 mm 0.00 in0.0 mm 0.00 in0.0 mm
04:25 AM 53.2°F11.8°C 48.5°F9.2°C 84% 3.7 mph NNW6.0 kmh NNW 7.3 mph11.7 kmh 29.99 in1015.6 mb 0.00 in0.0 mm 0.00 in0.0 mm 0.00 in0.0 mm
04:24 AM 53.2°F11.8°C 48.5°F9.2°C 84% 2.7 mph N4.3 kmh N 7.3 mph11.7 kmh 29.99 in1015.6 mb 0.00 in0.0 mm 0.00 in0.0 mm 0.00 in0.0 mm
04:23 AM 53.2°F11.8°C 48.5°F9.2°C 84% 4.2 mph W6.8 kmh W 7.3 mph11.7 kmh 29.99 in1015.6 mb 0.00 in0.0 mm 0.00 in0.0 mm 0.00 in0.0 mm
04:22 AM 53.2°F11.8°C 48.5°F9.2°C 84% 2.7 mph NNW4.3 kmh NNW 7.3 mph11.7 kmh 29.99 in1015.6 mb 0.00 in0.0 mm 0.00 in0.0 mm 0.00 in0.0 mm
04:21 AM 53.2°F11.8°C 48.5°F9.2°C 84% 4.7 mph NNE7.6 kmh NNE 7.3 mph11.7 kmh 29.99 in1015.6 mb 0.00 in0.0 mm 0.00 in0.0 mm 0.00 in0.0 mm
04:20 AM 53.2°F11.8°C 48.5°F9.2°C 84% 4.2 mph WNW6.8 kmh WNW 7.8 mph12.6 kmh 29.99 in1015.6 mb 0.00 in0.0 mm 0.00 in0.0 mm 0.00 in0.0 mm
04:19 AM 53.2°F11.8°C 48.5°F9.2°C 84% 3.7 mph NNE6.0 kmh NNE 7.8 mph12.6 kmh 29.99 in1015.6 mb 0.00 in0.0 mm 0.00 in0.0 mm 0.00 in0.0 mm
04:18 AM 53.2°F11.8°C 48.5°F9.2°C 84% 7.3 mph NNE11.7 kmh NNE 7.8 mph12.6 kmh 29.99 in1015.6 mb 0.00 in0.0 mm 0.00 in0.0 mm 0.00 in0.0 mm
04:17 AM 53.2°F11.8°C 48.5°F9.2°C 84% 3.7 mph NNW6.0 kmh NNW 7.8 mph12.6 kmh 29.99 in1015.6 mb 0.00 in0.0 mm 0.00 in0.0 mm 0.00 in0.0 mm
04:16 AM 53.2°F11.8°C 48.5°F9.2°C 84% 4.7 mph NNE7.6 kmh NNE 7.8 mph12.6 kmh 29.99 in1015.6 mb 0.00 in0.0 mm 0.00 in0.0 mm 0.00 in0.0 mm
04:15 AM 53.2°F11.8°C 48.5°F9.2°C 84% 5.8 mph NNE9.3 kmh NNE 7.8 mph12.6 kmh 29.99 in1015.6 mb 0.00 in0.0 mm 0.00 in0.0 mm 0.00 in0.0 mm
04:14 AM 53.2°F11.8°C 48.5°F9.2°C 84% 4.7 mph NW7.6 kmh NW 7.8 mph12.6 kmh 29.99 in1015.6 mb 0.00 in0.0 mm 0.00 in0.0 mm 0.00 in0.0 mm
04:13 AM 53.2°F11.8°C 48.5°F9.2°C 84% 2.2 mph WNW3.5 kmh WNW 7.8 mph12.6 kmh 29.99 in1015.6 mb 0.00 in0.0 mm 0.00 in0.0 mm 0.00 in0.0 mm
04:12 AM 53.2°F11.8°C 48.5°F9.2°C 84% 3.7 mph NNE6.0 kmh NNE 7.8 mph12.6 kmh 29.99 in1015.6 mb 0.00 in0.0 mm 0.00 in0.0 mm 0.00 in0.0 mm
04:11 AM 53.2°F11.8°C 48.5°F9.2°C 84% 6.3 mph NNE10.1 kmh NNE 7.8 mph12.6 kmh 29.99 in1015.6 mb 0.00 in0.0 mm 0.00 in0.0 mm 0.00 in0.0 mm
04:10 AM 53.2°F11.8°C 48.5°F9.2°C 84% 7.8 mph NNE12.6 kmh NNE 7.8 mph12.6 kmh 29.99 in1015.6 mb 0.00 in0.0 mm 0.00 in0.0 mm 0.00 in0.0 mm
04:09 AM 53.2°F11.8°C 48.5°F9.2°C 84% 4.7 mph NNW7.6 kmh NNW 7.8 mph12.6 kmh 29.99 in1015.6 mb 0.00 in0.0 mm 0.00 in0.0 mm 0.00 in0.0 mm
04:08 AM 53.2°F11.8°C 48.5°F9.2°C 84% 3.7 mph WNW6.0 kmh WNW 7.8 mph12.6 kmh 29.99 in1015.6 mb 0.00 in0.0 mm 0.00 in0.0 mm 0.00 in0.0 mm
04:07 AM 53.2°F11.8°C 48.5°F9.2°C 84% 2.7 mph NNE4.3 kmh NNE 7.8 mph12.6 kmh 29.99 in1015.6 mb 0.00 in0.0 mm 0.00 in0.0 mm 0.00 in0.0 mm
04:06 AM 53.2°F11.8°C 48.5°F9.2°C 84% 4.2 mph WNW6.8 kmh WNW 7.8 mph12.6 kmh 29.99 in1015.6 mb 0.00 in0.0 mm 0.00 in0.0 mm 0.00 in0.0 mm
04:05 AM 53.2°F11.8°C 48.5°F9.2°C 84% 7.3 mph NNE11.7 kmh NNE 7.8 mph12.6 kmh 29.99 in1015.6 mb 0.00 in0.0 mm 0.00 in0.0 mm 0.00 in0.0 mm
04:04 AM 53.2°F11.8°C 48.5°F9.2°C 84% 4.7 mph W7.6 kmh W 7.8 mph12.6 kmh 29.99 in1015.6 mb 0.00 in0.0 mm 0.00 in0.0 mm 0.00 in0.0 mm
04:03 AM 53.2°F11.8°C 48.5°F9.2°C 84% 6.3 mph NNE10.1 kmh NNE 7.8 mph12.6 kmh 29.99 in1015.6 mb 0.00 in0.0 mm 0.00 in0.0 mm 0.00 in0.0 mm
04:02 AM 53.2°F11.8°C 48.5°F9.2°C 84% 5.3 mph NNE8.5 kmh NNE 7.8 mph12.6 kmh 29.99 in1015.6 mb 0.00 in0.0 mm 0.00 in0.0 mm 0.00 in0.0 mm
04:01 AM 53.2°F11.8°C 48.5°F9.2°C 84% 7.8 mph NNW12.6 kmh NNW 7.8 mph12.6 kmh 29.99 in1015.6 mb 0.00 in0.0 mm 0.00 in0.0 mm 0.00 in0.0 mm
04:00 AM 53.2°F11.8°C 48.5°F9.2°C 84% 4.7 mph NW7.6 kmh NW 7.3 mph11.7 kmh 29.99 in1015.6 mb 0.00 in0.0 mm 0.00 in0.0 mm 0.00 in0.0 mm
03:59 AM 53.2°F11.8°C 48.5°F9.2°C 84% 3.2 mph NW5.1 kmh NW 7.3 mph11.7 kmh 29.99 in1015.6 mb 0.00 in0.0 mm 0.00 in0.0 mm 0.00 in0.0 mm
03:58 AM 53.2°F11.8°C 48.5°F9.2°C 84% 4.7 mph NW7.6 kmh NW 5.8 mph9.3 kmh 29.99 in1015.6 mb 0.00 in0.0 mm 0.00 in0.0 mm 0.00 in0.0 mm
03:57 AM 53.2°F11.8°C 48.5°F9.2°C 84% 5.3 mph N8.5 kmh N 6.8 mph10.9 kmh 29.99 in1015.6 mb 0.00 in0.0 mm 0.00 in0.0 mm 0.00 in0.0 mm
03:56 AM 53.2°F11.8°C 48.5°F9.2°C 84% 3.2 mph NNE5.1 kmh NNE 6.8 mph10.9 kmh 29.99 in1015.6 mb 0.00 in0.0 mm 0.00 in0.0 mm 0.00 in0.0 mm
03:55 AM 53.2°F11.8°C 48.5°F9.2°C 84% 2.7 mph NW4.3 kmh NW 6.8 mph10.9 kmh 29.99 in1015.6 mb 0.00 in0.0 mm 0.00 in0.0 mm 0.00 in0.0 mm
03:54 AM 53.2°F11.8°C 48.5°F9.2°C 84% 3.2 mph N5.1 kmh N 6.8 mph10.9 kmh 29.99 in1015.6 mb 0.00 in0.0 mm 0.00 in0.0 mm 0.00 in0.0 mm
03:53 AM 53.2°F11.8°C 48.5°F9.2°C 84% 3.7 mph NW6.0 kmh NW 6.8 mph10.9 kmh 29.99 in1015.6 mb 0.00 in0.0 mm 0.00 in0.0 mm 0.00 in0.0 mm
03:52 AM 53.2°F11.8°C 48.5°F9.2°C 84% 5.8 mph N9.3 kmh N 6.8 mph10.9 kmh 29.99 in1015.6 mb 0.00 in0.0 mm 0.00 in0.0 mm 0.00 in0.0 mm
03:51 AM 53.2°F11.8°C 48.5°F9.2°C 84% 3.7 mph NNW6.0 kmh NNW 6.8 mph10.9 kmh 29.99 in1015.6 mb 0.00 in0.0 mm 0.00 in0.0 mm 0.00 in0.0 mm
03:50 AM 53.2°F11.8°C 48.5°F9.2°C 84% 4.2 mph WNW6.8 kmh WNW 6.8 mph10.9 kmh 29.99 in1015.6 mb 0.00 in0.0 mm 0.00 in0.0 mm 0.00 in0.0 mm
03:49 AM 53.2°F11.8°C 48.5°F9.2°C 84% 5.3 mph NE8.5 kmh NE 6.8 mph10.9 kmh 29.99 in1015.6 mb 0.00 in0.0 mm 0.00 in0.0 mm 0.00 in0.0 mm
03:48 AM 53.2°F11.8°C 48.5°F9.2°C 84% 4.7 mph NW7.6 kmh NW 6.8 mph10.9 kmh 29.99 in1015.6 mb 0.00 in0.0 mm 0.00 in0.0 mm 0.00 in0.0 mm
03:47 AM 53.4°F11.9°C 48.7°F9.3°C 84% 4.2 mph N6.8 kmh N 6.8 mph10.9 kmh 29.99 in1015.6 mb 0.00 in0.0 mm 0.00 in0.0 mm 0.00 in0.0 mm
03:46 AM 53.4°F11.9°C 48.7°F9.3°C 84% 4.2 mph NNW6.8 kmh NNW 6.8 mph10.9 kmh 29.99 in1015.6 mb 0.00 in0.0 mm 0.00 in0.0 mm 0.00 in0.0 mm
03:45 AM 53.4°F11.9°C 48.7°F9.3°C 84% 4.2 mph NNW6.8 kmh NNW 7.8 mph12.6 kmh 29.99 in1015.6 mb 0.00 in0.0 mm 0.00 in0.0 mm 0.00 in0.0 mm
03:44 AM 53.4°F11.9°C 48.7°F9.3°C 84% 4.7 mph NNW7.6 kmh NNW 7.8 mph12.6 kmh 29.99 in1015.6 mb 0.00 in0.0 mm 0.00 in0.0 mm 0.00 in0.0 mm
03:43 AM 53.4°F11.9°C 48.7°F9.3°C 84% 6.3 mph NNE10.1 kmh NNE 7.8 mph12.6 kmh 29.99 in1015.6 mb 0.00 in0.0 mm 0.00 in0.0 mm 0.00 in0.0 mm
03:42 AM 53.4°F11.9°C 48.7°F9.3°C 84% 5.8 mph N9.3 kmh N 7.8 mph12.6 kmh 29.99 in1015.6 mb 0.00 in0.0 mm 0.00 in0.0 mm 0.00 in0.0 mm
03:41 AM 53.6°F12.0°C 48.6°F9.2°C 83% 3.7 mph NNE6.0 kmh NNE 7.8 mph12.6 kmh 29.99 in1015.6 mb 0.00 in0.0 mm 0.00 in0.0 mm 0.00 in0.0 mm
03:40 AM 53.6°F12.0°C 48.6°F9.2°C 83% 2.7 mph WNW4.3 kmh WNW 7.8 mph12.6 kmh 29.99 in1015.6 mb 0.00 in0.0 mm 0.00 in0.0 mm 0.00 in0.0 mm
03:39 AM 53.6°F12.0°C 48.6°F9.2°C 83% 3.2 mph NNE5.1 kmh NNE 7.8 mph12.6 kmh 29.99 in1015.6 mb 0.00 in0.0 mm 0.00 in0.0 mm 0.00 in0.0 mm
03:38 AM 53.6°F12.0°C 48.6°F9.2°C 83% 3.2 mph NW5.1 kmh NW 7.8 mph12.6 kmh 29.99 in1015.6 mb 0.00 in0.0 mm 0.00 in0.0 mm 0.00 in0.0 mm
03:37 AM 53.6°F12.0°C 48.6°F9.2°C 83% 5.3 mph N8.5 kmh N 7.8 mph12.6 kmh 29.99 in1015.6 mb 0.00 in0.0 mm 0.00 in0.0 mm 0.00 in0.0 mm
03:36 AM 53.8°F12.1°C 48.8°F9.3°C 83% 5.3 mph WNW8.5 kmh WNW 7.8 mph12.6 kmh 29.99 in1015.6 mb 0.00 in0.0 mm 0.00 in0.0 mm 0.00 in0.0 mm
03:35 AM 53.8°F12.1°C 48.8°F9.3°C 83% 7.8 mph N12.6 kmh N 7.8 mph12.6 kmh 29.99 in1015.6 mb 0.00 in0.0 mm 0.00 in0.0 mm 0.00 in0.0 mm
03:34 AM 53.8°F12.1°C 48.8°F9.3°C 83% 3.7 mph NE6.0 kmh NE 6.3 mph10.1 kmh 29.99 in1015.6 mb 0.00 in0.0 mm 0.00 in0.0 mm 0.00 in0.0 mm
03:33 AM 54.0°F12.2°C 49.0°F9.4°C 83% 3.2 mph NE5.1 kmh NE 6.3 mph10.1 kmh 29.99 in1015.6 mb 0.00 in0.0 mm 0.00 in0.0 mm 0.00 in0.0 mm
03:32 AM 54.0°F12.2°C 49.0°F9.4°C 83% 3.7 mph N6.0 kmh N 6.3 mph10.1 kmh 29.99 in1015.6 mb 0.00 in0.0 mm 0.00 in0.0 mm 0.00 in0.0 mm
03:31 AM 54.0°F12.2°C 49.0°F9.4°C 83% 5.3 mph NW8.5 kmh NW 5.8 mph9.3 kmh 29.99 in1015.6 mb 0.00 in0.0 mm 0.00 in0.0 mm 0.00 in0.0 mm
03:30 AM 54.0°F12.2°C 49.0°F9.4°C 83% 3.2 mph N5.1 kmh N 5.8 mph9.3 kmh 29.99 in1015.6 mb 0.00 in0.0 mm 0.00 in0.0 mm 0.00 in0.0 mm
03:29 AM 54.0°F12.2°C 49.0°F9.4°C 83% 3.7 mph NW6.0 kmh NW 5.8 mph9.3 kmh 29.99 in1015.6 mb 0.00 in0.0 mm 0.00 in0.0 mm 0.00 in0.0 mm
03:28 AM 54.0°F12.2°C 49.0°F9.4°C 83% 3.7 mph NW6.0 kmh NW 5.8 mph9.3 kmh 29.99 in1015.6 mb 0.00 in0.0 mm 0.00 in0.0 mm 0.00 in0.0 mm
03:27 AM 54.0°F12.2°C 49.0°F9.4°C 83% 2.7 mph WNW4.3 kmh WNW 5.8 mph9.3 kmh 29.99 in1015.6 mb 0.00 in0.0 mm 0.00 in0.0 mm 0.00 in0.0 mm
03:26 AM 54.0°F12.2°C 49.0°F9.4°C 83% 4.7 mph N7.6 kmh N 5.8 mph9.3 kmh 29.98 in1015.2 mb 0.00 in0.0 mm 0.00 in0.0 mm 0.00 in0.0 mm
03:25 AM 54.0°F12.2°C 49.0°F9.4°C 83% 3.2 mph W5.1 kmh W 6.8 mph10.9 kmh 29.98 in1015.2 mb 0.00 in0.0 mm 0.00 in0.0 mm 0.00 in0.0 mm
03:24 AM 54.0°F12.2°C 49.0°F9.4°C 83% 3.2 mph NNW5.1 kmh NNW 10.4 mph16.7 kmh 29.98 in1015.2 mb 0.00 in0.0 mm 0.00 in0.0 mm 0.00 in0.0 mm
03:23 AM 54.0°F12.2°C 49.0°F9.4°C 83% 4.2 mph WNW6.8 kmh WNW 10.4 mph16.7 kmh 29.98 in1015.2 mb 0.00 in0.0 mm 0.00 in0.0 mm 0.00 in0.0 mm
03:22 AM 54.0°F12.2°C 49.0°F9.4°C 83% 2.2 mph NW3.5 kmh NW 10.4 mph16.7 kmh 29.98 in1015.2 mb 0.00 in0.0 mm 0.00 in0.0 mm 0.00 in0.0 mm
03:21 AM 54.0°F12.2°C 49.0°F9.4°C 83% 4.7 mph W7.6 kmh W 10.4 mph16.7 kmh 29.98 in1015.2 mb 0.00 in0.0 mm 0.00 in0.0 mm 0.00 in0.0 mm
03:20 AM 54.0°F12.2°C 49.0°F9.4°C 83% 4.2 mph NW6.8 kmh NW 10.4 mph16.7 kmh 29.98 in1015.2 mb 0.00 in0.0 mm 0.00 in0.0 mm 0.00 in0.0 mm
03:19 AM 54.0°F12.2°C 49.0°F9.4°C 83% 3.2 mph N5.1 kmh N 10.4 mph16.7 kmh 29.98 in1015.2 mb 0.00 in0.0 mm 0.00 in0.0 mm 0.00 in0.0 mm
03:18 AM 54.0°F12.2°C 49.0°F9.4°C 83% 4.2 mph NW6.8 kmh NW 10.4 mph16.7 kmh 29.98 in1015.2 mb 0.00 in0.0 mm 0.00 in0.0 mm 0.00 in0.0 mm
03:17 AM 54.0°F12.2°C 49.0°F9.4°C 83% 4.2 mph WNW6.8 kmh WNW 10.4 mph16.7 kmh 29.98 in1015.2 mb 0.00 in0.0 mm 0.00 in0.0 mm 0.00 in0.0 mm
03:16 AM 54.0°F12.2°C 49.0°F9.4°C 83% 5.3 mph NNW8.5 kmh NNW 10.4 mph16.7 kmh 29.98 in1015.2 mb 0.00 in0.0 mm 0.00 in0.0 mm 0.00 in0.0 mm
03:15 AM 54.0°F12.2°C 49.0°F9.4°C 83% 6.8 mph N10.9 kmh N 10.4 mph16.7 kmh 29.98 in1015.2 mb 0.00 in0.0 mm 0.00 in0.0 mm 0.00 in0.0 mm
03:14 AM 54.1°F12.3°C 49.1°F9.5°C 83% 5.3 mph NNE8.5 kmh NNE 6.8 mph10.9 kmh 29.98 in1015.2 mb 0.00 in0.0 mm 0.00 in0.0 mm 0.00 in0.0 mm
03:13 AM 54.1°F12.3°C 49.1°F9.5°C 83% 2.7 mph NNW4.3 kmh NNW 6.8 mph10.9 kmh 29.98 in1015.2 mb 0.00 in0.0 mm 0.00 in0.0 mm 0.00 in0.0 mm
03:12 AM 54.1°F12.3°C 49.1°F9.5°C 83% 5.3 mph N8.5 kmh N 6.8 mph10.9 kmh 29.98 in1015.2 mb 0.00 in0.0 mm 0.00 in0.0 mm 0.00 in0.0 mm
03:11 AM 54.1°F12.3°C 49.1°F9.5°C 83% 4.2 mph N6.8 kmh N 6.8 mph10.9 kmh 29.98 in1015.2 mb 0.00 in0.0 mm 0.00 in0.0 mm 0.00 in0.0 mm
03:10 AM 54.1°F12.3°C 49.1°F9.5°C 83% 4.2 mph NNW6.8 kmh NNW 5.3 mph8.5 kmh 29.98 in1015.2 mb 0.00 in0.0 mm 0.00 in0.0 mm 0.00 in0.0 mm
03:09 AM 54.1°F12.3°C 49.1°F9.5°C 83% 3.7 mph NNW6.0 kmh NNW 6.3 mph10.1 kmh 29.98 in1015.2 mb 0.00 in0.0 mm 0.00 in0.0 mm 0.00 in0.0 mm
03:08 AM 54.1°F12.3°C 49.1°F9.5°C 83% 3.7 mph WNW6.0 kmh WNW 6.3 mph10.1 kmh 29.98 in1015.2 mb 0.00 in0.0 mm 0.00 in0.0 mm 0.00 in0.0 mm
03:07 AM 54.1°F12.3°C 49.1°F9.5°C 83% 3.2 mph NW5.1 kmh NW 6.3 mph10.1 kmh 29.98 in1015.2 mb 0.00 in0.0 mm 0.00 in0.0 mm 0.00 in0.0 mm
03:06 AM 54.1°F12.3°C 49.1°F9.5°C 83% 3.7 mph N6.0 kmh N 6.3 mph10.1 kmh 29.98 in1015.2 mb 0.00 in0.0 mm 0.00 in0.0 mm 0.00 in0.0 mm
03:05 AM 54.1°F12.3°C 49.1°F9.5°C 83% 2.7 mph WNW4.3 kmh WNW 6.3 mph10.1 kmh 29.98 in1015.2 mb 0.00 in0.0 mm 0.00 in0.0 mm 0.00 in0.0 mm
03:04 AM 54.1°F12.3°C 49.1°F9.5°C 83% 3.2 mph NW5.1 kmh NW 6.3 mph10.1 kmh 29.98 in1015.2 mb 0.00 in0.0 mm 0.00 in0.0 mm 0.00 in0.0 mm
03:03 AM 54.1°F12.3°C 49.1°F9.5°C 83% 4.2 mph NW6.8 kmh NW 6.3 mph10.1 kmh 29.98 in1015.2 mb 0.00 in0.0 mm 0.00 in0.0 mm 0.00 in0.0 mm
03:02 AM 54.1°F12.3°C 49.1°F9.5°C 83% 3.2 mph NNE5.1 kmh NNE 6.3 mph10.1 kmh 29.98 in1015.2 mb 0.00 in0.0 mm 0.00 in0.0 mm 0.00 in0.0 mm
03:01 AM 54.1°F12.3°C 49.1°F9.5°C 83% 2.7 mph NNW4.3 kmh NNW 6.8 mph10.9 kmh 29.98 in1015.2 mb 0.00 in0.0 mm 0.00 in0.0 mm 0.00 in0.0 mm
03:00 AM 54.1°F12.3°C 49.1°F9.5°C 83% 4.2 mph WNW6.8 kmh WNW 6.8 mph10.9 kmh 29.98 in1015.2 mb 0.00 in0.0 mm 0.00 in0.0 mm 0.00 in0.0 mm
02:59 AM 54.1°F12.3°C 49.1°F9.5°C 83% 3.7 mph NW6.0 kmh NW 7.3 mph11.7 kmh 29.98 in1015.2 mb 0.00 in0.0 mm 0.00 in0.0 mm 0.00 in0.0 mm
02:58 AM 54.1°F12.3°C 49.1°F9.5°C 83% 4.2 mph NW6.8 kmh NW 7.3 mph11.7 kmh 29.98 in1015.2 mb 0.00 in0.0 mm 0.00 in0.0 mm 0.00 in0.0 mm
02:57 AM 54.1°F12.3°C 49.1°F9.5°C 83% 3.2 mph NE5.1 kmh NE 7.3 mph11.7 kmh 29.98 in1015.2 mb 0.00 in0.0 mm 0.00 in0.0 mm 0.00 in0.0 mm
02:56 AM 54.1°F12.3°C 49.1°F9.5°C 83% 5.8 mph WNW9.3 kmh WNW 7.3 mph11.7 kmh 29.98 in1015.2 mb 0.00 in0.0 mm 0.00 in0.0 mm 0.00 in0.0 mm
02:55 AM 54.1°F12.3°C 49.1°F9.5°C 83% 2.7 mph NNW4.3 kmh NNW 7.3 mph11.7 kmh 29.98 in1015.2 mb 0.00 in0.0 mm 0.00 in0.0 mm 0.00 in0.0 mm
02:54 AM 54.1°F12.3°C 49.1°F9.5°C 83% 3.7 mph NW6.0 kmh NW 7.3 mph11.7 kmh 29.98 in1015.2 mb 0.00 in0.0 mm 0.00 in0.0 mm 0.00 in0.0 mm
02:53 AM 54.1°F12.3°C 49.1°F9.5°C 83% 4.7 mph NE7.6 kmh NE 7.3 mph11.7 kmh 29.98 in1015.2 mb 0.00 in0.0 mm 0.00 in0.0 mm 0.00 in0.0 mm
02:52 AM 54.1°F12.3°C 49.1°F9.5°C 83% 5.3 mph NNW8.5 kmh NNW 7.3 mph11.7 kmh 29.98 in1015.2 mb 0.00 in0.0 mm 0.00 in0.0 mm 0.00 in0.0 mm
02:51 AM 54.1°F12.3°C 49.1°F9.5°C 83% 3.7 mph NW6.0 kmh NW 7.3 mph11.7 kmh 29.98 in1015.2 mb 0.00 in0.0 mm 0.00 in0.0 mm 0.00 in0.0 mm
02:50 AM 54.1°F12.3°C 49.1°F9.5°C 83% 4.7 mph N7.6 kmh N 7.3 mph11.7 kmh 29.98 in1015.2 mb 0.00 in0.0 mm 0.00 in0.0 mm 0.00 in0.0 mm
02:49 AM 54.3°F12.4°C 49.2°F9.6°C 83% 6.8 mph N10.9 kmh N 6.8 mph10.9 kmh 29.98 in1015.2 mb 0.00 in0.0 mm 0.00 in0.0 mm 0.00 in0.0 mm
02:48 AM 54.3°F12.4°C 49.2°F9.6°C 83% 2.7 mph N4.3 kmh N 6.8 mph10.9 kmh 29.98 in1015.2 mb 0.00 in0.0 mm 0.00 in0.0 mm 0.00 in0.0 mm
02:47 AM 54.3°F12.4°C 49.2°F9.6°C 83% 4.7 mph N7.6 kmh N 5.8 mph9.3 kmh 29.98 in1015.2 mb 0.00 in0.0 mm 0.00 in0.0 mm 0.00 in0.0 mm
02:46 AM 54.3°F12.4°C 49.2°F9.6°C 83% 2.7 mph WNW4.3 kmh WNW 5.8 mph9.3 kmh 29.98 in1015.2 mb 0.00 in0.0 mm 0.00 in0.0 mm 0.00 in0.0 mm
02:45 AM 54.3°F12.4°C 49.2°F9.6°C 83% 2.7 mph NW4.3 kmh NW 5.8 mph9.3 kmh 29.98 in1015.2 mb 0.00 in0.0 mm 0.00 in0.0 mm 0.00 in0.0 mm
02:44 AM 54.3°F12.4°C 49.2°F9.6°C 83% 3.7 mph WNW6.0 kmh WNW 5.8 mph9.3 kmh 29.98 in1015.2 mb 0.00 in0.0 mm 0.00 in0.0 mm 0.00 in0.0 mm
02:43 AM 54.3°F12.4°C 49.2°F9.6°C 83% 3.7 mph NNW6.0 kmh NNW 5.8 mph9.3 kmh 29.98 in1015.2 mb 0.00 in0.0 mm 0.00 in0.0 mm 0.00 in0.0 mm
02:42 AM 54.3°F12.4°C 49.2°F9.6°C 83% 3.7 mph NW6.0 kmh NW 5.8 mph9.3 kmh 29.98 in1015.2 mb 0.00 in0.0 mm 0.00 in0.0 mm 0.00 in0.0 mm
02:41 AM 54.3°F12.4°C 48.9°F9.4°C 82% 4.7 mph N7.6 kmh N 5.8 mph9.3 kmh 29.98 in1015.2 mb 0.00 in0.0 mm 0.00 in0.0 mm 0.00 in0.0 mm
02:40 AM 54.3°F12.4°C 48.9°F9.4°C 82% 3.2 mph NW5.1 kmh NW 5.8 mph9.3 kmh 29.98 in1015.2 mb 0.00 in0.0 mm 0.00 in0.0 mm 0.00 in0.0 mm
02:39 AM 54.3°F12.4°C 48.9°F9.4°C 82% 2.7 mph NE4.3 kmh NE 5.8 mph9.3 kmh 29.98 in1015.2 mb 0.00 in0.0 mm 0.00 in0.0 mm 0.00 in0.0 mm
02:38 AM 54.3°F12.4°C 48.9°F9.4°C 82% 5.8 mph NW9.3 kmh NW 6.3 mph10.1 kmh 29.98 in1015.2 mb 0.00 in0.0 mm 0.00 in0.0 mm 0.00 in0.0 mm
02:37 AM 54.3°F12.4°C 48.9°F9.4°C 82% 2.7 mph N4.3 kmh N 6.3 mph10.1 kmh 29.98 in1015.2 mb 0.00 in0.0 mm 0.00 in0.0 mm 0.00 in0.0 mm
02:36 AM 54.5°F12.5°C 49.1°F9.5°C 82% 3.7 mph N6.0 kmh N 6.3 mph10.1 kmh 29.98 in1015.2 mb 0.00 in0.0 mm 0.00 in0.0 mm 0.00 in0.0 mm
02:35 AM 54.5°F12.5°C 49.1°F9.5°C 82% 2.7 mph WNW4.3 kmh WNW 8.9 mph14.3 kmh 29.98 in1015.2 mb 0.00 in0.0 mm 0.00 in0.0 mm 0.00 in0.0 mm
02:34 AM 54.5°F12.5°C 49.1°F9.5°C 82% 2.7 mph N4.3 kmh N 8.9 mph14.3 kmh 29.98 in1015.2 mb 0.00 in0.0 mm 0.00 in0.0 mm 0.00 in0.0 mm
02:33 AM 54.5°F12.5°C 49.1°F9.5°C 82% 4.7 mph NNE7.6 kmh NNE 8.9 mph14.3 kmh 29.98 in1015.2 mb 0.00 in0.0 mm 0.00 in0.0 mm 0.00 in0.0 mm
02:32 AM 54.5°F12.5°C 49.1°F9.5°C 82% 2.7 mph NW4.3 kmh NW 8.9 mph14.3 kmh 29.98 in1015.2 mb 0.00 in0.0 mm 0.00 in0.0 mm 0.00 in0.0 mm
02:31 AM 54.5°F12.5°C 49.1°F9.5°C 82% 3.2 mph NNW5.1 kmh NNW 8.9 mph14.3 kmh 29.98 in1015.2 mb 0.00 in0.0 mm 0.00 in0.0 mm 0.00 in0.0 mm
02:30 AM 54.5°F12.5°C 49.1°F9.5°C 82% 3.2 mph N5.1 kmh N 8.9 mph14.3 kmh 29.98 in1015.2 mb 0.00 in0.0 mm 0.00 in0.0 mm 0.00 in0.0 mm
02:29 AM 54.7°F12.6°C 49.3°F9.6°C 82% 5.8 mph NNE9.3 kmh NNE 8.9 mph14.3 kmh 29.98 in1015.2 mb 0.00 in0.0 mm 0.00 in0.0 mm 0.00 in0.0 mm
02:28 AM 54.7°F12.6°C 49.3°F9.6°C 82% 2.7 mph NNE4.3 kmh NNE 8.9 mph14.3 kmh 29.98 in1015.2 mb 0.00 in0.0 mm 0.00 in0.0 mm 0.00 in0.0 mm
02:27 AM 54.7°F12.6°C 49.3°F9.6°C 82% 2.2 mph NNE3.5 kmh NNE 8.9 mph14.3 kmh 29.98 in1015.2 mb 0.00 in0.0 mm 0.00 in0.0 mm 0.00 in0.0 mm
02:26 AM 54.7°F12.6°C 49.3°F9.6°C 82% 3.7 mph NW6.0 kmh NW 8.9 mph14.3 kmh 29.99 in1015.6 mb 0.00 in0.0 mm 0.00 in0.0 mm 0.00 in0.0 mm
02:25 AM 54.7°F12.6°C 49.3°F9.6°C 82% 8.9 mph NW14.3 kmh NW 8.9 mph14.3 kmh 29.99 in1015.6 mb 0.00 in0.0 mm 0.00 in0.0 mm 0.00 in0.0 mm
02:24 AM 54.7°F12.6°C 49.3°F9.6°C 82% 4.2 mph NW6.8 kmh NW 7.3 mph11.7 kmh 29.99 in1015.6 mb 0.00 in0.0 mm 0.00 in0.0 mm 0.00 in0.0 mm
02:23 AM 54.7°F12.6°C 49.3°F9.6°C 82% 3.7 mph NW6.0 kmh NW 7.3 mph11.7 kmh 29.99 in1015.6 mb 0.00 in0.0 mm 0.00 in0.0 mm 0.00 in0.0 mm
02:22 AM 54.7°F12.6°C 49.3°F9.6°C 82% 3.7 mph NNE6.0 kmh NNE 7.3 mph11.7 kmh 29.99 in1015.6 mb 0.00 in0.0 mm 0.00 in0.0 mm 0.00 in0.0 mm
02:21 AM 54.9°F12.7°C 49.5°F9.7°C 82% 5.8 mph NNE9.3 kmh NNE 7.3 mph11.7 kmh 29.99 in1015.6 mb 0.00 in0.0 mm 0.00 in0.0 mm 0.00 in0.0 mm
02:20 AM 54.9°F12.7°C 49.5°F9.7°C 82% 5.3 mph N8.5 kmh N 7.3 mph11.7 kmh 29.99 in1015.6 mb 0.00 in0.0 mm 0.00 in0.0 mm 0.00 in0.0 mm
02:19 AM 54.9°F12.7°C 49.5°F9.7°C 82% 7.3 mph NNW11.7 kmh NNW 7.3 mph11.7 kmh 29.99 in1015.6 mb 0.00 in0.0 mm 0.00 in0.0 mm 0.00 in0.0 mm
02:18 AM 54.9°F12.7°C 49.5°F9.7°C 82% 5.3 mph NE8.5 kmh NE 7.3 mph11.7 kmh 29.99 in1015.6 mb 0.00 in0.0 mm 0.00 in0.0 mm 0.00 in0.0 mm
02:17 AM 54.9°F12.7°C 49.5°F9.7°C 82% 6.8 mph NNW10.9 kmh NNW 7.3 mph11.7 kmh 29.99 in1015.6 mb 0.00 in0.0 mm 0.00 in0.0 mm 0.00 in0.0 mm
02:16 AM 54.9°F12.7°C 49.5°F9.7°C 82% 5.3 mph NE8.5 kmh NE 6.8 mph10.9 kmh 29.99 in1015.6 mb 0.00 in0.0 mm 0.00 in0.0 mm 0.00 in0.0 mm
02:15 AM 54.9°F12.7°C 49.5°F9.7°C 82% 5.3 mph NNE8.5 kmh NNE 6.8 mph10.9 kmh 29.99 in1015.6 mb 0.00 in0.0 mm 0.00 in0.0 mm 0.00 in0.0 mm
02:14 AM 54.9°F12.7°C 49.5°F9.7°C 82% 4.2 mph NE6.8 kmh NE 6.8 mph10.9 kmh 29.99 in1015.6 mb 0.00 in0.0 mm 0.00 in0.0 mm 0.00 in0.0 mm
02:13 AM 54.9°F12.7°C 49.5°F9.7°C 82% 2.2 mph NNW3.5 kmh NNW 7.8 mph12.6 kmh 29.99 in1015.6 mb 0.00 in0.0 mm 0.00 in0.0 mm 0.00 in0.0 mm
02:12 AM 54.9°F12.7°C 49.5°F9.7°C 82% 4.7 mph NNE7.6 kmh NNE 8.3 mph13.4 kmh 29.99 in1015.6 mb 0.00 in0.0 mm 0.00 in0.0 mm 0.00 in0.0 mm
02:11 AM 54.9°F12.7°C 49.5°F9.7°C 82% 3.7 mph N6.0 kmh N 8.3 mph13.4 kmh 29.99 in1015.6 mb 0.00 in0.0 mm 0.00 in0.0 mm 0.00 in0.0 mm
02:10 AM 54.9°F12.7°C 49.5°F9.7°C 82% 6.8 mph NNE10.9 kmh NNE 8.3 mph13.4 kmh 29.99 in1015.6 mb 0.00 in0.0 mm 0.00 in0.0 mm 0.00 in0.0 mm
02:09 AM 54.9°F12.7°C 49.5°F9.7°C 82% 6.3 mph NE10.1 kmh NE 8.3 mph13.4 kmh 29.99 in1015.6 mb 0.00 in0.0 mm 0.00 in0.0 mm 0.00 in0.0 mm
02:08 AM 55.0°F12.8°C 49.6°F9.8°C 82% 3.7 mph N6.0 kmh N 8.3 mph13.4 kmh 29.99 in1015.6 mb 0.00 in0.0 mm 0.00 in0.0 mm 0.00 in0.0 mm
02:07 AM 55.0°F12.8°C 49.6°F9.8°C 82% 4.7 mph NNE7.6 kmh NNE 8.3 mph13.4 kmh 29.99 in1015.6 mb 0.00 in0.0 mm 0.00 in0.0 mm 0.00 in0.0 mm
02:06 AM 55.0°F12.8°C 49.6°F9.8°C 82% 3.7 mph NNW6.0 kmh NNW 8.3 mph13.4 kmh 29.99 in1015.6 mb 0.00 in0.0 mm 0.00 in0.0 mm 0.00 in0.0 mm
02:05 AM 55.0°F12.8°C 49.6°F9.8°C 82% 3.2 mph NW5.1 kmh NW 8.3 mph13.4 kmh 29.99 in1015.6 mb 0.00 in0.0 mm 0.00 in0.0 mm 0.00 in0.0 mm
02:04 AM 55.0°F12.8°C 49.6°F9.8°C 82% 2.7 mph N4.3 kmh N 8.3 mph13.4 kmh 29.99 in1015.6 mb 0.00 in0.0 mm 0.00 in0.0 mm 0.00 in0.0 mm
02:03 AM 55.0°F12.8°C 49.6°F9.8°C 82% 7.8 mph W12.6 kmh W 8.3 mph13.4 kmh 29.99 in1015.6 mb 0.00 in0.0 mm 0.00 in0.0 mm 0.00 in0.0 mm
02:02 AM 55.0°F12.8°C 49.6°F9.8°C 82% 8.3 mph NW13.4 kmh NW 8.3 mph13.4 kmh 29.99 in1015.6 mb 0.00 in0.0 mm 0.00 in0.0 mm 0.00 in0.0 mm
02:01 AM 55.0°F12.8°C 49.6°F9.8°C 82% 4.7 mph NNE7.6 kmh NNE 7.3 mph11.7 kmh 29.99 in1015.6 mb 0.00 in0.0 mm 0.00 in0.0 mm 0.00 in0.0 mm
02:00 AM 55.0°F12.8°C 49.6°F9.8°C 82% 2.7 mph NW4.3 kmh NW 6.8 mph10.9 kmh 29.99 in1015.6 mb 0.00 in0.0 mm 0.00 in0.0 mm 0.00 in0.0 mm
01:59 AM 55.0°F12.8°C 49.6°F9.8°C 82% 2.7 mph NNE4.3 kmh NNE 10.9 mph17.5 kmh 29.99 in1015.6 mb 0.00 in0.0 mm 0.00 in0.0 mm 0.00 in0.0 mm
01:58 AM 55.0°F12.8°C 49.6°F9.8°C 82% 5.8 mph WNW9.3 kmh WNW 10.9 mph17.5 kmh 29.99 in1015.6 mb 0.00 in0.0 mm 0.00 in0.0 mm 0.00 in0.0 mm
01:57 AM 55.0°F12.8°C 49.6°F9.8°C 82% 3.7 mph NW6.0 kmh NW 10.9 mph17.5 kmh 29.99 in1015.6 mb 0.00 in0.0 mm 0.00 in0.0 mm 0.00 in0.0 mm
01:56 AM 55.2°F12.9°C 49.8°F9.9°C 82% 4.2 mph NNW6.8 kmh NNW 10.9 mph17.5 kmh 29.99 in1015.6 mb 0.00 in0.0 mm 0.00 in0.0 mm 0.00 in0.0 mm
01:55 AM 55.2°F12.9°C 49.5°F9.7°C 81% 4.2 mph NNE6.8 kmh NNE 10.9 mph17.5 kmh 29.99 in1015.6 mb 0.00 in0.0 mm 0.00 in0.0 mm 0.00 in0.0 mm
01:54 AM 55.2°F12.9°C 49.5°F9.7°C 81% 4.7 mph NNE7.6 kmh NNE 10.9 mph17.5 kmh 29.99 in1015.6 mb 0.00 in0.0 mm 0.00 in0.0 mm 0.00 in0.0 mm
01:53 AM 55.2°F12.9°C 49.5°F9.7°C 81% 3.7 mph N6.0 kmh N 10.9 mph17.5 kmh 29.99 in1015.6 mb 0.00 in0.0 mm 0.00 in0.0 mm 0.00 in0.0 mm
01:52 AM 55.2°F12.9°C 49.5°F9.7°C 81% 6.8 mph NNE10.9 kmh NNE 10.9 mph17.5 kmh 29.99 in1015.6 mb 0.00 in0.0 mm 0.00 in0.0 mm 0.00 in0.0 mm
01:51 AM 55.2°F12.9°C 49.5°F9.7°C 81% 5.8 mph NNW9.3 kmh NNW 10.9 mph17.5 kmh 29.99 in1015.6 mb 0.00 in0.0 mm 0.00 in0.0 mm 0.00 in0.0 mm
01:50 AM 55.2°F12.9°C 49.5°F9.7°C 81% 5.3 mph NNE8.5 kmh NNE 10.9 mph17.5 kmh 30.00 in1015.9 mb 0.00 in0.0 mm 0.00 in0.0 mm 0.00 in0.0 mm
01:49 AM 55.4°F13.0°C 49.7°F9.8°C 81% 10.9 mph NNE17.5 kmh NNE 10.9 mph17.5 kmh 30.00 in1015.9 mb 0.00 in0.0 mm 0.00 in0.0 mm 0.00 in0.0 mm
01:48 AM 55.4°F13.0°C 49.7°F9.8°C 81% 4.2 mph N6.8 kmh N 7.8 mph12.6 kmh 30.00 in1015.9 mb 0.00 in0.0 mm 0.00 in0.0 mm 0.00 in0.0 mm
01:47 AM 55.4°F13.0°C 49.7°F9.8°C 81% 3.7 mph N6.0 kmh N 7.8 mph12.6 kmh 30.00 in1015.9 mb 0.00 in0.0 mm 0.00 in0.0 mm 0.00 in0.0 mm
01:46 AM 55.4°F13.0°C 49.7°F9.8°C 81% 3.2 mph NNW5.1 kmh NNW 7.8 mph12.6 kmh 30.00 in1015.9 mb 0.00 in0.0 mm 0.00 in0.0 mm 0.00 in0.0 mm
01:45 AM 55.4°F13.0°C 49.7°F9.8°C 81% 4.7 mph NNE7.6 kmh NNE 8.3 mph13.4 kmh 30.00 in1015.9 mb 0.00 in0.0 mm 0.00 in0.0 mm 0.00 in0.0 mm
01:44 AM 55.4°F13.0°C 49.7°F9.8°C 81% 3.7 mph N6.0 kmh N 8.3 mph13.4 kmh 30.00 in1015.9 mb 0.00 in0.0 mm 0.00 in0.0 mm 0.00 in0.0 mm
01:43 AM 55.4°F13.0°C 49.7°F9.8°C 81% 7.8 mph N12.6 kmh N 8.3 mph13.4 kmh 30.00 in1015.9 mb 0.00 in0.0 mm 0.00 in0.0 mm 0.00 in0.0 mm
01:42 AM 55.6°F13.1°C 49.9°F9.9°C 81% 3.7 mph NW6.0 kmh NW 8.3 mph13.4 kmh 30.00 in1015.9 mb 0.00 in0.0 mm 0.00 in0.0 mm 0.00 in0.0 mm
01:41 AM 55.6°F13.1°C 49.9°F9.9°C 81% 3.2 mph NW5.1 kmh NW 8.3 mph13.4 kmh 30.00 in1015.9 mb 0.00 in0.0 mm 0.00 in0.0 mm 0.00 in0.0 mm
01:40 AM 55.6°F13.1°C 49.9°F9.9°C 81% 5.8 mph NNW9.3 kmh NNW 8.3 mph13.4 kmh 30.00 in1015.9 mb 0.00 in0.0 mm 0.00 in0.0 mm 0.00 in0.0 mm
01:39 AM 55.6°F13.1°C 49.9°F9.9°C 81% 3.2 mph NW5.1 kmh NW 8.3 mph13.4 kmh 30.00 in1015.9 mb 0.00 in0.0 mm 0.00 in0.0 mm 0.00 in0.0 mm
01:38 AM 55.6°F13.1°C 49.9°F9.9°C 81% 5.3 mph NNE8.5 kmh NNE 8.3 mph13.4 kmh 30.00 in1015.9 mb 0.00 in0.0 mm 0.00 in0.0 mm 0.00 in0.0 mm
01:37 AM 55.6°F13.1°C 49.9°F9.9°C 81% 4.7 mph NNE7.6 kmh NNE 8.3 mph13.4 kmh 30.00 in1015.9 mb 0.00 in0.0 mm 0.00 in0.0 mm 0.00 in0.0 mm
01:36 AM 55.6°F13.1°C 49.9°F9.9°C 81% 4.2 mph NW6.8 kmh NW 8.3 mph13.4 kmh 30.00 in1015.9 mb 0.00 in0.0 mm 0.00 in0.0 mm 0.00 in0.0 mm
01:35 AM 55.8°F13.2°C 49.7°F9.8°C 80% 4.2 mph WNW6.8 kmh WNW 6.3 mph10.1 kmh 30.00 in1015.9 mb 0.00 in0.0 mm 0.00 in0.0 mm 0.00 in0.0 mm
01:34 AM 55.8°F13.2°C 49.7°F9.8°C 80% 5.3 mph NNE8.5 kmh NNE 8.3 mph13.4 kmh 30.00 in1015.9 mb 0.00 in0.0 mm 0.00 in0.0 mm 0.00 in0.0 mm
01:33 AM 55.8°F13.2°C 49.7°F9.8°C 80% 3.2 mph NW5.1 kmh NW 8.3 mph13.4 kmh 30.00 in1015.9 mb 0.00 in0.0 mm 0.00 in0.0 mm 0.00 in0.0 mm
01:32 AM 55.9°F13.3°C 49.8°F9.9°C 80% 5.8 mph N9.3 kmh N 8.3 mph13.4 kmh 30.00 in1015.9 mb 0.00 in0.0 mm 0.00 in0.0 mm 0.00 in0.0 mm
01:31 AM 55.9°F13.3°C 49.8°F9.9°C 80% 5.8 mph NW9.3 kmh NW 8.3 mph13.4 kmh 30.00 in1015.9 mb 0.00 in0.0 mm 0.00 in0.0 mm 0.00 in0.0 mm
01:30 AM 55.9°F13.3°C 49.8°F9.9°C 80% 4.7 mph NW7.6 kmh NW 8.3 mph13.4 kmh 30.00 in1015.9 mb 0.00 in0.0 mm 0.00 in0.0 mm 0.00 in0.0 mm
01:29 AM 55.9°F13.3°C 49.8°F9.9°C 80% 4.7 mph N7.6 kmh N 8.3 mph13.4 kmh 30.00 in1015.9 mb 0.00 in0.0 mm 0.00 in0.0 mm 0.00 in0.0 mm
01:28 AM 55.9°F13.3°C 49.8°F9.9°C 80% 5.3 mph NNW8.5 kmh NNW 8.3 mph13.4 kmh 30.00 in1015.9 mb 0.00 in0.0 mm 0.00 in0.0 mm 0.00 in0.0 mm
01:27 AM 56.1°F13.4°C 50.0°F10.0°C 80% 4.7 mph NW7.6 kmh NW 8.3 mph13.4 kmh 30.00 in1015.9 mb 0.00 in0.0 mm 0.00 in0.0 mm 0.00 in0.0 mm
01:26 AM 56.1°F13.4°C 50.0°F10.0°C 80% 4.7 mph NW7.6 kmh NW 8.3 mph13.4 kmh 30.00 in1015.9 mb 0.00 in0.0 mm 0.00 in0.0 mm 0.00 in0.0 mm
01:25 AM 56.1°F13.4°C 50.0°F10.0°C 80% 5.3 mph NNE8.5 kmh NNE 8.3 mph13.4 kmh 30.00 in1015.9 mb 0.00 in0.0 mm 0.00 in0.0 mm 0.00 in0.0 mm
01:24 AM 56.3°F13.5°C 50.2°F10.1°C 80% 5.3 mph NNE8.5 kmh NNE 6.3 mph10.1 kmh 30.00 in1015.9 mb 0.00 in0.0 mm 0.00 in0.0 mm 0.00 in0.0 mm
01:23 AM 56.3°F13.5°C 50.2°F10.1°C 80% 5.8 mph NW9.3 kmh NW 7.8 mph12.6 kmh 30.00 in1015.9 mb 0.00 in0.0 mm 0.00 in0.0 mm 0.00 in0.0 mm
01:22 AM 56.5°F13.6°C 50.4°F10.2°C 80% 4.2 mph NNE6.8 kmh NNE 7.8 mph12.6 kmh 30.00 in1015.9 mb 0.00 in0.0 mm 0.00 in0.0 mm 0.00 in0.0 mm
01:21 AM 56.5°F13.6°C 50.4°F10.2°C 80% 3.7 mph WSW6.0 kmh WSW 7.8 mph12.6 kmh 30.00 in1015.9 mb 0.00 in0.0 mm 0.00 in0.0 mm 0.00 in0.0 mm
01:20 AM 56.5°F13.6°C 50.4°F10.2°C 80% 3.7 mph W6.0 kmh W 7.8 mph12.6 kmh 30.00 in1015.9 mb 0.00 in0.0 mm 0.00 in0.0 mm 0.00 in0.0 mm
01:19 AM 56.5°F13.6°C 50.4°F10.2°C 80% 2.7 mph NNW4.3 kmh NNW 7.8 mph12.6 kmh 30.00 in1015.9 mb 0.00 in0.0 mm 0.00 in0.0 mm 0.00 in0.0 mm
01:18 AM 56.5°F13.6°C 50.4°F10.2°C 80% 2.7 mph NW4.3 kmh NW 7.8 mph12.6 kmh 30.00 in1015.9 mb 0.00 in0.0 mm 0.00 in0.0 mm 0.00 in0.0 mm
01:17 AM 56.5°F13.6°C 50.4°F10.2°C 80% 2.7 mph NW4.3 kmh NW 7.8 mph12.6 kmh 30.00 in1015.9 mb 0.00 in0.0 mm 0.00 in0.0 mm 0.00 in0.0 mm
01:16 AM 56.5°F13.6°C 50.4°F10.2°C 80% 3.2 mph NW5.1 kmh NW 7.8 mph12.6 kmh 30.00 in1015.9 mb 0.00 in0.0 mm 0.00 in0.0 mm 0.00 in0.0 mm
01:15 AM 56.5°F13.6°C 50.1°F10.1°C 79% 4.7 mph NNE7.6 kmh NNE 7.8 mph12.6 kmh 30.00 in1015.9 mb 0.00 in0.0 mm 0.00 in0.0 mm 0.00 in0.0 mm
01:14 AM 56.5°F13.6°C 50.1°F10.1°C 79% 3.7 mph NW6.0 kmh NW 7.8 mph12.6 kmh 29.99 in1015.6 mb 0.00 in0.0 mm 0.00 in0.0 mm 0.00 in0.0 mm
01:13 AM 56.5°F13.6°C 50.1°F10.1°C 79% 4.7 mph N7.6 kmh N 6.8 mph10.9 kmh 29.99 in1015.6 mb 0.00 in0.0 mm 0.00 in0.0 mm 0.00 in0.0 mm
01:12 AM 56.5°F13.6°C 50.1°F10.1°C 79% 6.3 mph N10.1 kmh N 6.8 mph10.9 kmh 29.99 in1015.6 mb 0.00 in0.0 mm 0.00 in0.0 mm 0.00 in0.0 mm
01:11 AM 56.5°F13.6°C 50.1°F10.1°C 79% 3.7 mph NNW6.0 kmh NNW 6.8 mph10.9 kmh 29.99 in1015.6 mb 0.00 in0.0 mm 0.00 in0.0 mm 0.00 in0.0 mm
01:10 AM 56.5°F13.6°C 50.1°F10.1°C 79% 6.3 mph NNE10.1 kmh NNE 6.8 mph10.9 kmh 29.99 in1015.6 mb 0.00 in0.0 mm 0.00 in0.0 mm 0.00 in0.0 mm
01:09 AM 56.5°F13.6°C 50.1°F10.1°C 79% 3.7 mph NNE6.0 kmh NNE 6.8 mph10.9 kmh 29.99 in1015.6 mb 0.00 in0.0 mm 0.00 in0.0 mm 0.00 in0.0 mm
01:08 AM 56.5°F13.6°C 50.1°F10.1°C 79% 4.7 mph NE7.6 kmh NE 6.8 mph10.9 kmh 29.99 in1015.6 mb 0.00 in0.0 mm 0.00 in0.0 mm 0.00 in0.0 mm
01:07 AM 56.5°F13.6°C 50.1°F10.1°C 79% 3.7 mph NNW6.0 kmh NNW 6.8 mph10.9 kmh 29.99 in1015.6 mb 0.00 in0.0 mm 0.00 in0.0 mm 0.00 in0.0 mm
01:06 AM 56.5°F13.6°C 50.1°F10.1°C 79% 4.2 mph N6.8 kmh N 6.8 mph10.9 kmh 29.99 in1015.6 mb 0.00 in0.0 mm 0.00 in0.0 mm 0.00 in0.0 mm
01:05 AM 56.5°F13.6°C 50.1°F10.1°C 79% 2.2 mph NNW3.5 kmh NNW 8.9 mph14.3 kmh 29.99 in1015.6 mb 0.00 in0.0 mm 0.00 in0.0 mm 0.00 in0.0 mm
01:04 AM 56.5°F13.6°C 50.1°F10.1°C 79% 5.8 mph NNE9.3 kmh NNE 8.9 mph14.3 kmh 29.99 in1015.6 mb 0.00 in0.0 mm 0.00 in0.0 mm 0.00 in0.0 mm
01:03 AM 56.5°F13.6°C 50.1°F10.1°C 79% 3.7 mph NNE6.0 kmh NNE 8.9 mph14.3 kmh 29.99 in1015.6 mb 0.00 in0.0 mm 0.00 in0.0 mm 0.00 in0.0 mm
01:02 AM 56.7°F13.7°C 50.3°F10.2°C 79% 3.7 mph NW6.0 kmh NW 8.9 mph14.3 kmh 29.99 in1015.6 mb 0.00 in0.0 mm 0.00 in0.0 mm 0.00 in0.0 mm
01:01 AM 56.7°F13.7°C 50.3°F10.2°C 79% 5.3 mph NW8.5 kmh NW 8.9 mph14.3 kmh 29.99 in1015.6 mb 0.00 in0.0 mm 0.00 in0.0 mm 0.00 in0.0 mm
01:00 AM 56.7°F13.7°C 50.3°F10.2°C 79% 2.7 mph WNW4.3 kmh WNW 8.9 mph14.3 kmh 29.99 in1015.6 mb 0.00 in0.0 mm 0.00 in0.0 mm 0.00 in0.0 mm
12:59 AM 56.7°F13.7°C 50.3°F10.2°C 79% 4.2 mph N6.8 kmh N 8.9 mph14.3 kmh 29.99 in1015.6 mb 0.00 in0.0 mm 0.00 in0.0 mm 0.00 in0.0 mm
12:58 AM 56.7°F13.7°C 50.3°F10.2°C 79% 4.2 mph NNW6.8 kmh NNW 8.9 mph14.3 kmh 29.99 in1015.6 mb 0.00 in0.0 mm 0.00 in0.0 mm 0.00 in0.0 mm
12:57 AM 56.7°F13.7°C 50.3°F10.2°C 79% 6.8 mph NNE10.9 kmh NNE 8.9 mph14.3 kmh 29.99 in1015.6 mb 0.00 in0.0 mm 0.00 in0.0 mm 0.00 in0.0 mm
12:56 AM 56.7°F13.7°C 50.3°F10.2°C 79% 5.8 mph NE9.3 kmh NE 8.9 mph14.3 kmh 29.99 in1015.6 mb 0.00 in0.0 mm 0.00 in0.0 mm 0.00 in0.0 mm
12:55 AM 56.7°F13.7°C 50.3°F10.2°C 79% 5.8 mph NNE9.3 kmh NNE 8.9 mph14.3 kmh 29.99 in1015.6 mb 0.00 in0.0 mm 0.00 in0.0 mm 0.00 in0.0 mm
12:54 AM 56.7°F13.7°C 50.3°F10.2°C 79% 5.3 mph N8.5 kmh N 8.9 mph14.3 kmh 29.99 in1015.6 mb 0.00 in0.0 mm 0.00 in0.0 mm 0.00 in0.0 mm
12:53 AM 56.7°F13.7°C 50.3°F10.2°C 79% 6.8 mph N10.9 kmh N 8.3 mph13.4 kmh 29.99 in1015.6 mb 0.00 in0.0 mm 0.00 in0.0 mm 0.00 in0.0 mm
12:52 AM 56.8°F13.8°C 50.4°F10.2°C 79% 6.3 mph NNW10.1 kmh NNW 8.3 mph13.4 kmh 29.99 in1015.6 mb 0.00 in0.0 mm 0.00 in0.0 mm 0.00 in0.0 mm
12:51 AM 56.8°F13.8°C 50.4°F10.2°C 79% 3.7 mph NNW6.0 kmh NNW 8.3 mph13.4 kmh 29.99 in1015.6 mb 0.00 in0.0 mm 0.00 in0.0 mm 0.00 in0.0 mm
12:50 AM 56.8°F13.8°C 50.4°F10.2°C 79% 5.8 mph NW9.3 kmh NW 8.3 mph13.4 kmh 30.00 in1015.9 mb 0.00 in0.0 mm 0.00 in0.0 mm 0.00 in0.0 mm
12:49 AM 56.8°F13.8°C 50.0°F10.0°C 78% 3.7 mph NNW6.0 kmh NNW 8.3 mph13.4 kmh 30.00 in1015.9 mb 0.00 in0.0 mm 0.00 in0.0 mm 0.00 in0.0 mm
12:48 AM 56.8°F13.8°C 50.0°F10.0°C 78% 4.7 mph N7.6 kmh N 8.3 mph13.4 kmh 30.00 in1015.9 mb 0.00 in0.0 mm 0.00 in0.0 mm 0.00 in0.0 mm
12:47 AM 56.8°F13.8°C 50.0°F10.0°C 78% 8.3 mph NE13.4 kmh NE 8.9 mph14.3 kmh 30.00 in1015.9 mb 0.00 in0.0 mm 0.00 in0.0 mm 0.00 in0.0 mm
12:46 AM 57.0°F13.9°C 50.2°F10.1°C 78% 6.3 mph N10.1 kmh N 8.9 mph14.3 kmh 30.00 in1015.9 mb 0.00 in0.0 mm 0.00 in0.0 mm 0.00 in0.0 mm
12:45 AM 57.0°F13.9°C 50.2°F10.1°C 78% 4.7 mph NNW7.6 kmh NNW 8.9 mph14.3 kmh 30.00 in1015.9 mb 0.00 in0.0 mm 0.00 in0.0 mm 0.00 in0.0 mm
12:44 AM 57.0°F13.9°C 50.2°F10.1°C 78% 4.2 mph WNW6.8 kmh WNW 8.9 mph14.3 kmh 30.00 in1015.9 mb 0.00 in0.0 mm 0.00 in0.0 mm 0.00 in0.0 mm
12:43 AM 57.0°F13.9°C 50.2°F10.1°C 78% 4.7 mph NNE7.6 kmh NNE 8.9 mph14.3 kmh 30.00 in1015.9 mb 0.00 in0.0 mm 0.00 in0.0 mm 0.00 in0.0 mm
12:42 AM 57.2°F14.0°C 50.4°F10.2°C 78% 4.2 mph N6.8 kmh N 8.9 mph14.3 kmh 30.00 in1015.9 mb 0.00 in0.0 mm 0.00 in0.0 mm 0.00 in0.0 mm
12:41 AM 57.2°F14.0°C 50.4°F10.2°C 78% 2.7 mph NNW4.3 kmh NNW 8.9 mph14.3 kmh 30.00 in1015.9 mb 0.00 in0.0 mm 0.00 in0.0 mm 0.00 in0.0 mm
12:40 AM 57.2°F14.0°C 50.4°F10.2°C 78% 5.3 mph N8.5 kmh N 8.9 mph14.3 kmh 30.00 in1015.9 mb 0.00 in0.0 mm 0.00 in0.0 mm 0.00 in0.0 mm
12:39 AM 57.2°F14.0°C 50.4°F10.2°C 78% 5.3 mph NNW8.5 kmh NNW 8.9 mph14.3 kmh 30.00 in1015.9 mb 0.00 in0.0 mm 0.00 in0.0 mm 0.00 in0.0 mm
12:38 AM 57.2°F14.0°C 50.4°F10.2°C 78% 2.7 mph N4.3 kmh N 8.9 mph14.3 kmh 30.00 in1015.9 mb 0.00 in0.0 mm 0.00 in0.0 mm 0.00 in0.0 mm
12:37 AM 57.2°F14.0°C 50.4°F10.2°C 78% 8.9 mph NNE14.3 kmh NNE 8.9 mph14.3 kmh 30.00 in1015.9 mb 0.00 in0.0 mm 0.00 in0.0 mm 0.00 in0.0 mm
12:36 AM 57.2°F14.0°C 50.4°F10.2°C 78% 3.7 mph WNW6.0 kmh WNW 7.3 mph11.7 kmh 30.00 in1015.9 mb 0.00 in0.0 mm 0.00 in0.0 mm 0.00 in0.0 mm
12:35 AM 57.4°F14.1°C 50.6°F10.3°C 78% 1.7 mph NW2.7 kmh NW 7.3 mph11.7 kmh 30.00 in1015.9 mb 0.00 in0.0 mm 0.00 in0.0 mm 0.00 in0.0 mm
12:34 AM 57.4°F14.1°C 50.6°F10.3°C 78% 6.8 mph NNE10.9 kmh NNE 7.3 mph11.7 kmh 30.00 in1015.9 mb 0.00 in0.0 mm 0.00 in0.0 mm 0.00 in0.0 mm
12:33 AM 57.4°F14.1°C 50.6°F10.3°C 78% 2.7 mph NNW4.3 kmh NNW 8.9 mph14.3 kmh 30.00 in1015.9 mb 0.00 in0.0 mm 0.00 in0.0 mm 0.00 in0.0 mm
12:32 AM 57.4°F14.1°C 50.6°F10.3°C 78% 3.7 mph NW6.0 kmh NW 8.9 mph14.3 kmh 30.00 in1015.9 mb 0.00 in0.0 mm 0.00 in0.0 mm 0.00 in0.0 mm
12:31 AM 57.4°F14.1°C 50.6°F10.3°C 78% 3.7 mph NE6.0 kmh NE 8.9 mph14.3 kmh 30.00 in1015.9 mb 0.00 in0.0 mm 0.00 in0.0 mm 0.00 in0.0 mm
12:30 AM 57.4°F14.1°C 50.6°F10.3°C 78% 5.3 mph NNE8.5 kmh NNE 8.9 mph14.3 kmh 30.00 in1015.9 mb 0.00 in0.0 mm 0.00 in0.0 mm 0.00 in0.0 mm
12:29 AM 57.6°F14.2°C 50.8°F10.4°C 78% 5.3 mph NNE8.5 kmh NNE 8.9 mph14.3 kmh 30.00 in1015.9 mb 0.00 in0.0 mm 0.00 in0.0 mm 0.00 in0.0 mm
12:28 AM 57.6°F14.2°C 50.8°F10.4°C 78% 3.2 mph NNW5.1 kmh NNW 8.9 mph14.3 kmh 30.00 in1015.9 mb 0.00 in0.0 mm 0.00 in0.0 mm 0.00 in0.0 mm
12:27 AM 57.6°F14.2°C 50.8°F10.4°C 78% 4.7 mph N7.6 kmh N 8.9 mph14.3 kmh 30.00 in1015.9 mb 0.00 in0.0 mm 0.00 in0.0 mm 0.00 in0.0 mm
12:26 AM 57.6°F14.2°C 50.8°F10.4°C 78% 5.3 mph NNE8.5 kmh NNE 8.9 mph14.3 kmh 30.00 in1015.9 mb 0.00 in0.0 mm 0.00 in0.0 mm 0.00 in0.0 mm
12:25 AM 57.7°F14.3°C 50.9°F10.5°C 78% 3.7 mph N6.0 kmh N 8.9 mph14.3 kmh 30.00 in1015.9 mb 0.00 in0.0 mm 0.00 in0.0 mm 0.00 in0.0 mm
12:24 AM 57.7°F14.3°C 50.9°F10.5°C 78% 3.7 mph NNE6.0 kmh NNE 8.9 mph14.3 kmh 30.00 in1015.9 mb 0.00 in0.0 mm 0.00 in0.0 mm 0.00 in0.0 mm
12:23 AM 57.7°F14.3°C 50.9°F10.5°C 78% 2.7 mph N4.3 kmh N 7.3 mph11.7 kmh 30.00 in1015.9 mb 0.00 in0.0 mm 0.00 in0.0 mm 0.00 in0.0 mm
12:22 AM 57.7°F14.3°C 50.5°F10.3°C 77% 3.7 mph N6.0 kmh N 7.3 mph11.7 kmh 30.00 in1015.9 mb 0.00 in0.0 mm 0.00 in0.0 mm 0.00 in0.0 mm
12:21 AM 57.7°F14.3°C 50.5°F10.3°C 77% 4.2 mph WNW6.8 kmh WNW 8.3 mph13.4 kmh 30.00 in1015.9 mb 0.00 in0.0 mm 0.00 in0.0 mm 0.00 in0.0 mm
12:20 AM 57.9°F14.4°C 50.7°F10.4°C 77% 5.3 mph NW8.5 kmh NW 8.9 mph14.3 kmh 30.00 in1015.9 mb 0.00 in0.0 mm 0.00 in0.0 mm 0.00 in0.0 mm
12:19 AM 57.9°F14.4°C 50.7°F10.4°C 77% 6.3 mph NNW10.1 kmh NNW 8.9 mph14.3 kmh 30.00 in1015.9 mb 0.00 in0.0 mm 0.00 in0.0 mm 0.00 in0.0 mm
12:18 AM 57.9°F14.4°C 50.7°F10.4°C 77% 5.8 mph NW9.3 kmh NW 8.9 mph14.3 kmh 30.00 in1015.9 mb 0.00 in0.0 mm 0.00 in0.0 mm 0.00 in0.0 mm
12:17 AM 57.9°F14.4°C 50.7°F10.4°C 77% 4.7 mph NNW7.6 kmh NNW 8.9 mph14.3 kmh 30.00 in1015.9 mb 0.00 in0.0 mm 0.00 in0.0 mm 0.00 in0.0 mm
12:16 AM 57.9°F14.4°C 50.7°F10.4°C 77% 3.7 mph NNW6.0 kmh NNW 8.9 mph14.3 kmh 30.00 in1015.9 mb 0.00 in0.0 mm 0.00 in0.0 mm 0.00 in0.0 mm
12:15 AM 58.1°F14.5°C 50.9°F10.5°C 77% 4.2 mph N6.8 kmh N 8.9 mph14.3 kmh 30.00 in1015.9 mb 0.00 in0.0 mm 0.00 in0.0 mm 0.00 in0.0 mm
12:14 AM 58.1°F14.5°C 50.9°F10.5°C 77% 5.8 mph NNW9.3 kmh NNW 8.9 mph14.3 kmh 30.00 in1015.9 mb 0.00 in0.0 mm 0.00 in0.0 mm 0.00 in0.0 mm
12:13 AM 58.1°F14.5°C 50.9°F10.5°C 77% 4.2 mph NNE6.8 kmh NNE 8.9 mph14.3 kmh 30.00 in1015.9 mb 0.00 in0.0 mm 0.00 in0.0 mm 0.00 in0.0 mm
12:12 AM 58.1°F14.5°C 50.9°F10.5°C 77% 3.7 mph N6.0 kmh N 8.9 mph14.3 kmh 30.00 in1015.9 mb 0.00 in0.0 mm 0.00 in0.0 mm 0.00 in0.0 mm
12:11 AM 58.1°F14.5°C 50.9°F10.5°C 77% 8.3 mph NNW13.4 kmh NNW 8.9 mph14.3 kmh 30.00 in1015.9 mb 0.00 in0.0 mm 0.00 in0.0 mm 0.00 in0.0 mm
12:10 AM 58.3°F14.6°C 51.1°F10.6°C 77% 3.7 mph NNE6.0 kmh NNE 8.9 mph14.3 kmh 30.00 in1015.9 mb 0.00 in0.0 mm 0.00 in0.0 mm 0.00 in0.0 mm
12:09 AM 58.3°F14.6°C 51.1°F10.6°C 77% 3.2 mph N5.1 kmh N 8.9 mph14.3 kmh 30.00 in1015.9 mb 0.00 in0.0 mm 0.00 in0.0 mm 0.00 in0.0 mm
12:08 AM 58.3°F14.6°C 51.1°F10.6°C 77% 7.8 mph N12.6 kmh N 8.9 mph14.3 kmh 30.00 in1015.9 mb 0.00 in0.0 mm 0.00 in0.0 mm 0.00 in0.0 mm
12:07 AM 58.3°F14.6°C 51.1°F10.6°C 77% 8.9 mph NNW14.3 kmh NNW 8.9 mph14.3 kmh 30.00 in1015.9 mb 0.00 in0.0 mm 0.00 in0.0 mm 0.00 in0.0 mm
12:06 AM 58.3°F14.6°C 51.1°F10.6°C 77% 4.2 mph NNW6.8 kmh NNW 7.8 mph12.6 kmh 30.00 in1015.9 mb 0.00 in0.0 mm 0.00 in0.0 mm 0.00 in0.0 mm
12:05 AM 58.5°F14.7°C 51.3°F10.7°C 77% 4.7 mph NNE7.6 kmh NNE 7.8 mph12.6 kmh 30.00 in1015.9 mb 0.00 in0.0 mm 0.00 in0.0 mm 0.00 in0.0 mm
12:04 AM 58.5°F14.7°C 51.3°F10.7°C 77% 3.7 mph N6.0 kmh N 7.8 mph12.6 kmh 30.00 in1015.9 mb 0.00 in0.0 mm 0.00 in0.0 mm 0.00 in0.0 mm
12:03 AM 58.5°F14.7°C 51.3°F10.7°C 77% 4.2 mph NNW6.8 kmh NNW 7.8 mph12.6 kmh 30.00 in1015.9 mb 0.00 in0.0 mm 0.00 in0.0 mm 0.00 in0.0 mm
12:02 AM 58.6°F14.8°C 51.4°F10.8°C 77% 3.7 mph NNW6.0 kmh NNW 7.8 mph12.6 kmh 30.00 in1015.9 mb 0.00 in0.0 mm 0.00 in0.0 mm 0.00 in0.0 mm
12:01 AM 58.6°F14.8°C 51.4°F10.8°C 77% 4.2 mph N6.8 kmh N 7.8 mph12.6 kmh 30.00 in1015.9 mb 0.00 in0.0 mm 0.00 in0.0 mm 0.00 in0.0 mm
12:00 AM 58.6°F14.8°C 51.1°F10.6°C 76% 5.8 mph NNW9.3 kmh NNW 7.8 mph12.6 kmh 30.00 in1015.9 mb 0.00 in0.0 mm 0.00 in0.0 mm 0.00 in0.0 mm